createdAt,value
2018-07-22T00:00:18.971Z,6.83
2018-07-22T00:00:52.098Z,6.90
2018-07-22T00:01:25.223Z,6.97
2018-07-22T00:01:58.475Z,7.17
2018-07-22T00:02:31.671Z,7.03
2018-07-22T00:03:04.776Z,7.62
2018-07-22T00:03:37.894Z,7.70
2018-07-22T00:04:18.172Z,6.47
2018-07-22T00:04:51.426Z,8.08
2018-07-22T00:05:25.135Z,6.53
2018-07-22T00:05:58.349Z,7.37
2018-07-22T00:06:31.706Z,7.00
2018-07-22T00:07:04.780Z,6.60
2018-07-22T00:07:38.654Z,7.33
2018-07-22T00:08:11.747Z,7.20
2018-07-22T00:08:44.912Z,6.87
2018-07-22T00:09:18.047Z,7.10
2018-07-22T00:09:51.103Z,6.37
2018-07-22T00:10:27.822Z,6.95
2018-07-22T00:11:00.999Z,6.72
2018-07-22T00:11:34.180Z,6.85
2018-07-22T00:12:07.483Z,6.33
2018-07-22T00:12:40.562Z,6.30
2018-07-22T00:13:13.727Z,6.83
2018-07-22T00:13:46.879Z,6.20
2018-07-22T00:14:20.027Z,6.67
2018-07-22T00:14:53.183Z,7.25
2018-07-22T00:15:26.346Z,7.12
2018-07-22T00:15:59.474Z,7.30
2018-07-22T00:16:32.576Z,6.90
2018-07-22T00:17:05.724Z,7.22
2018-07-22T00:17:38.848Z,6.25
2018-07-22T00:18:12.360Z,7.28
2018-07-22T00:18:46.130Z,6.75
2018-07-22T00:19:19.257Z,6.40
2018-07-22T00:19:52.399Z,7.22
2018-07-22T00:20:25.651Z,7.40
2018-07-22T00:20:58.772Z,6.15
2018-07-22T00:21:32.314Z,7.00
2018-07-22T00:22:05.508Z,7.50
2018-07-22T00:22:39.391Z,6.97
2018-07-22T00:23:12.501Z,11.05
2018-07-22T00:23:45.590Z,7.25
2018-07-22T00:24:18.674Z,6.92
2018-07-22T00:24:52.025Z,7.10
2018-07-22T00:25:27.630Z,7.92
2018-07-22T00:26:00.781Z,7.75
2018-07-22T00:26:33.880Z,7.25
2018-07-22T00:27:07.209Z,7.95
2018-07-22T00:27:40.339Z,7.00
2018-07-22T00:28:13.960Z,7.42
2018-07-22T00:28:47.689Z,7.17
2018-07-22T00:29:20.872Z,6.72
2018-07-22T00:29:53.973Z,7.53
2018-07-22T00:30:27.290Z,7.37
2018-07-22T00:31:00.395Z,5.97
2018-07-22T00:31:33.972Z,6.95
2018-07-22T00:32:07.615Z,7.85
2018-07-22T00:32:42.048Z,6.70
2018-07-22T00:33:15.218Z,7.40
2018-07-22T00:33:48.692Z,7.60
2018-07-22T00:34:22.204Z,7.12
2018-07-22T00:34:55.347Z,7.17
2018-07-22T00:35:28.562Z,6.72
2018-07-22T00:36:01.759Z,7.22
2018-07-22T00:36:34.904Z,6.87
2018-07-22T00:37:08.082Z,6.67
2018-07-22T00:37:41.708Z,6.90
2018-07-22T00:38:15.813Z,7.25
2018-07-22T00:38:49.187Z,6.95
2018-07-22T00:39:22.324Z,6.92
2018-07-22T00:39:55.784Z,6.65
2018-07-22T00:40:29.028Z,6.90
2018-07-22T00:41:03.123Z,7.15
2018-07-22T00:41:36.274Z,6.35
2018-07-22T00:42:09.473Z,6.33
2018-07-22T00:42:43.144Z,7.83
2018-07-22T00:43:16.911Z,6.87
2018-07-22T00:43:50.244Z,7.03
2018-07-22T00:44:23.420Z,7.00
2018-07-22T00:44:56.582Z,6.70
2018-07-22T00:45:29.766Z,7.35
2018-07-22T00:46:02.938Z,7.00
2018-07-22T00:46:36.121Z,7.03
2018-07-22T00:47:09.314Z,7.20
2018-07-22T00:47:42.994Z,7.55
2018-07-22T00:48:16.232Z,7.17
2018-07-22T00:48:49.417Z,7.30
2018-07-22T00:49:22.596Z,6.90
2018-07-22T00:49:55.868Z,7.58
2018-07-22T00:50:28.966Z,6.62
2018-07-22T00:51:02.133Z,7.03
2018-07-22T00:51:35.225Z,7.05
2018-07-22T00:52:08.419Z,6.95
2018-07-22T00:52:41.519Z,7.33
2018-07-22T00:53:14.634Z,7.03
2018-07-22T00:53:47.742Z,7.35
2018-07-22T00:54:21.132Z,6.50
2018-07-22T00:54:54.385Z,7.42
2018-07-22T00:55:27.942Z,6.80
2018-07-22T00:56:01.143Z,6.87
2018-07-22T00:56:34.559Z,6.95
2018-07-22T00:57:07.623Z,6.70
2018-07-22T00:57:40.920Z,7.20
2018-07-22T00:58:14.104Z,7.40
2018-07-22T00:58:48.179Z,6.87
2018-07-22T00:59:21.468Z,7.10
2018-07-22T00:59:54.656Z,6.55
2018-07-22T01:00:27.698Z,6.30
2018-07-22T01:01:00.803Z,6.90
2018-07-22T01:01:34.063Z,7.65
2018-07-22T01:02:07.299Z,7.30
2018-07-22T01:02:40.415Z,7.87
2018-07-22T01:03:13.502Z,6.45
2018-07-22T01:03:46.775Z,7.92
2018-07-22T01:04:20.275Z,6.15
2018-07-22T01:04:53.390Z,6.80
2018-07-22T01:05:26.548Z,7.30
2018-07-22T01:05:59.654Z,7.75
2018-07-22T01:06:32.733Z,7.58
2018-07-22T01:07:05.830Z,6.83
2018-07-22T01:07:39.040Z,6.72
2018-07-22T01:08:12.200Z,6.17
2018-07-22T01:08:45.286Z,6.90
2018-07-22T01:09:19.175Z,6.80
2018-07-22T01:09:52.352Z,7.10
2018-07-22T01:10:25.443Z,6.95
2018-07-22T01:10:58.708Z,6.42
2018-07-22T01:11:31.933Z,6.50
2018-07-22T01:12:05.093Z,6.90
2018-07-22T01:12:38.248Z,6.12
2018-07-22T01:13:11.347Z,7.05
2018-07-22T01:13:44.610Z,7.05
2018-07-22T01:14:17.783Z,6.42
2018-07-22T01:14:50.965Z,6.65
2018-07-22T01:15:24.139Z,6.60
2018-07-22T01:15:57.305Z,7.47
2018-07-22T01:16:30.494Z,7.15
2018-07-22T01:17:03.597Z,7.67
2018-07-22T01:17:36.848Z,7.05
2018-07-22T01:18:10.035Z,7.10
2018-07-22T01:18:43.627Z,7.35
2018-07-22T01:19:16.692Z,6.92
2018-07-22T01:19:50.193Z,7.35
2018-07-22T01:20:23.292Z,6.80
2018-07-22T01:20:56.556Z,7.22
2018-07-22T01:21:29.728Z,7.42
2018-07-22T01:22:02.805Z,6.90
2018-07-22T01:22:35.885Z,7.75
2018-07-22T01:23:08.958Z,6.50
2018-07-22T01:23:42.146Z,6.72
2018-07-22T01:24:15.230Z,7.05
2018-07-22T01:24:48.820Z,6.60
2018-07-22T01:25:21.901Z,7.05
2018-07-22T01:25:55.151Z,7.20
2018-07-22T01:26:28.212Z,6.92
2018-07-22T01:27:01.511Z,7.35
2018-07-22T01:27:34.692Z,6.83
2018-07-22T01:28:07.899Z,6.83
2018-07-22T01:28:41.353Z,7.47
2018-07-22T01:29:14.428Z,6.80
2018-07-22T01:29:47.525Z,7.50
2018-07-22T01:30:20.886Z,6.80
2018-07-22T01:30:54.525Z,7.03
2018-07-22T01:31:27.851Z,7.30
2018-07-22T01:32:01.077Z,6.97
2018-07-22T01:32:34.335Z,7.75
2018-07-22T01:33:07.408Z,8.15
2018-07-22T01:33:41.307Z,7.53
2018-07-22T01:34:14.356Z,7.35
2018-07-22T01:34:47.467Z,7.47
2018-07-22T01:35:20.543Z,6.75
2018-07-22T01:35:53.623Z,7.20
2018-07-22T01:36:26.777Z,7.12
2018-07-22T01:36:59.857Z,7.22
2018-07-22T01:37:33.155Z,6.80
2018-07-22T01:38:07.317Z,7.42
2018-07-22T01:38:40.401Z,7.25
2018-07-22T01:39:13.574Z,6.67
2018-07-22T01:39:46.885Z,7.75
2018-07-22T01:40:19.971Z,7.37
2018-07-22T01:40:53.086Z,7.20
2018-07-22T01:41:26.287Z,7.03
2018-07-22T01:41:59.461Z,6.83
2018-07-22T01:42:32.551Z,6.95
2018-07-22T01:43:05.652Z,7.03
2018-07-22T01:43:38.771Z,7.12
2018-07-22T01:44:11.864Z,7.53
2018-07-22T01:44:45.047Z,6.75
2018-07-22T01:45:18.532Z,7.25
2018-07-22T01:45:51.730Z,6.90
2018-07-22T01:46:24.788Z,7.65
2018-07-22T01:46:58.066Z,7.28
2018-07-22T01:47:31.631Z,6.92
2018-07-22T01:48:04.747Z,7.42
2018-07-22T01:48:37.925Z,7.20
2018-07-22T01:49:11.004Z,7.00
2018-07-22T01:49:44.134Z,8.13
2018-07-22T01:50:17.523Z,7.10
2018-07-22T01:50:50.796Z,7.62
2018-07-22T01:51:23.891Z,7.42
2018-07-22T01:51:56.991Z,7.15
2018-07-22T01:52:30.182Z,6.78
2018-07-22T01:53:03.434Z,6.87
2018-07-22T01:53:36.842Z,6.87
2018-07-22T01:54:10.245Z,7.40
2018-07-22T01:54:43.507Z,7.92
2018-07-22T01:55:16.591Z,7.03
2018-07-22T01:55:49.848Z,7.70
2018-07-22T01:56:23.047Z,7.53
2018-07-22T01:56:56.108Z,6.75
2018-07-22T01:57:29.391Z,7.80
2018-07-22T01:58:02.572Z,7.22
2018-07-22T01:58:35.668Z,6.70
2018-07-22T01:59:08.747Z,6.90
2018-07-22T01:59:41.839Z,7.30
2018-07-22T02:00:14.923Z,6.97
2018-07-22T02:00:48.163Z,7.00
2018-07-22T02:01:21.259Z,7.05
2018-07-22T02:01:54.500Z,7.37
2018-07-22T02:02:27.816Z,7.70
2018-07-22T02:03:00.880Z,7.65
2018-07-22T02:03:34.046Z,7.17
2018-07-22T02:04:07.147Z,7.42
2018-07-22T02:04:40.330Z,6.95
2018-07-22T02:05:13.571Z,8.10
2018-07-22T02:05:47.079Z,7.40
2018-07-22T02:06:20.230Z,7.30
2018-07-22T02:06:53.315Z,7.40
2018-07-22T02:07:26.582Z,6.97
2018-07-22T02:08:00.032Z,7.00
2018-07-22T02:08:33.395Z,6.83
2018-07-22T02:09:07.545Z,7.25
2018-07-22T02:09:41.168Z,7.20
2018-07-22T02:10:14.327Z,8.20
2018-07-22T02:10:47.936Z,7.08
2018-07-22T02:11:21.041Z,7.65
2018-07-22T02:11:54.177Z,7.28
2018-07-22T02:12:27.344Z,7.20
2018-07-22T02:13:00.423Z,7.20
2018-07-22T02:13:33.710Z,7.50
2018-07-22T02:14:06.891Z,7.33
2018-07-22T02:14:40.064Z,7.65
2018-07-22T02:15:13.379Z,7.37
2018-07-22T02:15:46.479Z,7.67
2018-07-22T02:16:19.550Z,7.30
2018-07-22T02:16:52.635Z,7.67
2018-07-22T02:17:25.715Z,7.75
2018-07-22T02:17:58.874Z,7.20
2018-07-22T02:18:32.020Z,6.65
2018-07-22T02:19:05.167Z,6.85
2018-07-22T02:19:38.285Z,7.25
2018-07-22T02:20:11.336Z,7.05
2018-07-22T02:20:45.842Z,7.87
2018-07-22T02:21:20.684Z,7.33
2018-07-22T02:21:55.619Z,6.35
2018-07-22T02:22:30.746Z,7.80
2018-07-22T02:23:07.108Z,8.88
2018-07-22T02:23:41.103Z,6.87
2018-07-22T02:24:14.185Z,7.20
2018-07-22T02:24:47.262Z,7.53
2018-07-22T02:25:20.339Z,7.53
2018-07-22T02:25:53.494Z,7.25
2018-07-22T02:26:26.615Z,6.65
2018-07-22T02:26:59.837Z,7.83
2018-07-22T02:27:33.007Z,7.25
2018-07-22T02:28:06.094Z,7.50
2018-07-22T02:28:39.180Z,7.37
2018-07-22T02:29:12.251Z,6.80
2018-07-22T02:29:45.406Z,7.90
2018-07-22T02:30:18.722Z,8.18
2018-07-22T02:30:51.830Z,7.50
2018-07-22T02:31:24.911Z,7.20
2018-07-22T02:31:58.258Z,7.33
2018-07-22T02:32:31.528Z,7.25
2018-07-22T02:33:04.618Z,7.75
2018-07-22T02:33:37.720Z,7.80
2018-07-22T02:34:11.040Z,8.10
2018-07-22T02:34:44.105Z,7.33
2018-07-22T02:35:17.226Z,7.33
2018-07-22T02:35:50.305Z,8.13
2018-07-22T02:36:23.380Z,7.30
2018-07-22T02:36:56.460Z,7.53
2018-07-22T02:37:29.524Z,7.00
2018-07-22T02:38:02.691Z,7.50
2018-07-22T02:38:35.829Z,8.35
2018-07-22T02:39:10.703Z,7.80
2018-07-22T02:39:43.775Z,7.72
2018-07-22T02:40:16.854Z,7.55
2018-07-22T02:40:50.239Z,7.30
2018-07-22T02:41:23.306Z,6.92
2018-07-22T02:41:56.394Z,7.30
2018-07-22T02:42:29.504Z,7.47
2018-07-22T02:43:02.561Z,7.55
2018-07-22T02:43:35.633Z,7.30
2018-07-22T02:44:08.979Z,7.50
2018-07-22T02:44:42.036Z,7.65
2018-07-22T02:45:16.794Z,8.85
2018-07-22T02:45:51.465Z,7.83
2018-07-22T02:46:26.597Z,7.20
2018-07-22T02:47:00.725Z,7.35
2018-07-22T02:47:33.780Z,7.90
2018-07-22T02:48:06.949Z,7.12
2018-07-22T02:48:40.069Z,8.18
2018-07-22T02:49:13.123Z,7.00
2018-07-22T02:49:46.224Z,7.95
2018-07-22T02:50:19.373Z,7.35
2018-07-22T02:50:52.552Z,6.85
2018-07-22T02:51:25.781Z,7.42
2018-07-22T02:51:58.843Z,7.50
2018-07-22T02:52:31.928Z,8.05
2018-07-22T02:53:05.048Z,7.95
2018-07-22T02:53:38.187Z,7.70
2018-07-22T02:54:11.446Z,7.55
2018-07-22T02:54:44.517Z,7.28
2018-07-22T02:55:17.678Z,8.10
2018-07-22T02:55:50.868Z,8.35
2018-07-22T02:56:24.039Z,7.67
2018-07-22T02:56:57.335Z,8.40
2018-07-22T02:57:30.408Z,7.80
2018-07-22T02:58:03.503Z,7.80
2018-07-22T02:58:36.622Z,8.45
2018-07-22T02:59:09.920Z,8.05
2018-07-22T02:59:42.996Z,7.95
2018-07-22T03:00:16.074Z,8.28
2018-07-22T03:00:49.274Z,8.03
2018-07-22T03:01:22.346Z,7.53
2018-07-22T03:01:55.498Z,7.35
2018-07-22T03:02:28.569Z,6.87
2018-07-22T03:03:01.651Z,7.55
2018-07-22T03:03:34.753Z,7.97
2018-07-22T03:04:08.342Z,7.53
2018-07-22T03:04:41.496Z,7.55
2018-07-22T03:05:14.568Z,7.70
2018-07-22T03:05:47.673Z,7.40
2018-07-22T03:06:20.820Z,7.58
2018-07-22T03:06:53.884Z,8.20
2018-07-22T03:07:27.106Z,7.65
2018-07-22T03:08:00.185Z,8.28
2018-07-22T03:08:33.346Z,7.25
2018-07-22T03:09:06.790Z,7.50
2018-07-22T03:09:39.871Z,8.18
2018-07-22T03:10:12.997Z,7.28
2018-07-22T03:10:46.180Z,8.13
2018-07-22T03:11:19.239Z,7.35
2018-07-22T03:11:52.310Z,7.35
2018-07-22T03:12:25.371Z,7.72
2018-07-22T03:12:58.434Z,7.37
2018-07-22T03:13:31.626Z,7.17
2018-07-22T03:14:04.695Z,8.50
2018-07-22T03:14:38.019Z,8.60
2018-07-22T03:15:11.228Z,7.35
2018-07-22T03:15:44.330Z,8.05
2018-07-22T03:16:17.407Z,7.20
2018-07-22T03:16:50.687Z,7.95
2018-07-22T03:17:23.871Z,7.78
2018-07-22T03:17:56.963Z,7.50
2018-07-22T03:18:30.239Z,7.45
2018-07-22T03:19:03.399Z,7.75
2018-07-22T03:19:36.599Z,7.47
2018-07-22T03:20:10.097Z,7.30
2018-07-22T03:20:43.185Z,7.55
2018-07-22T03:21:16.438Z,7.15
2018-07-22T03:21:49.514Z,7.20
2018-07-22T03:22:22.925Z,7.17
2018-07-22T03:22:56.027Z,7.42
2018-07-22T03:23:29.148Z,8.28
2018-07-22T03:24:02.331Z,7.22
2018-07-22T03:24:35.506Z,8.23
2018-07-22T03:25:08.605Z,8.60
2018-07-22T03:25:41.994Z,9.58
2018-07-22T03:26:15.059Z,9.60
2018-07-22T03:26:48.134Z,9.88
2018-07-22T03:27:21.422Z,10.30
2018-07-22T03:27:54.575Z,8.78
2018-07-22T03:28:27.706Z,8.85
2018-07-22T03:29:00.803Z,10.35
2018-07-22T03:29:33.880Z,9.75
2018-07-22T03:30:06.979Z,11.40
2018-07-22T03:30:40.156Z,9.58
2018-07-22T03:31:13.206Z,8.35
2018-07-22T03:31:46.511Z,7.72
2018-07-22T03:32:19.831Z,7.35
2018-07-22T03:32:52.890Z,7.35
2018-07-22T03:33:26.052Z,8.30
2018-07-22T03:33:59.365Z,7.95
2018-07-22T03:34:32.423Z,7.55
2018-07-22T03:35:05.599Z,8.98
2018-07-22T03:35:38.696Z,7.70
2018-07-22T03:36:11.783Z,7.28
2018-07-22T03:36:44.863Z,7.62
2018-07-22T03:37:18.000Z,7.22
2018-07-22T03:37:51.205Z,7.62
2018-07-22T03:38:24.292Z,7.35
2018-07-22T03:38:57.665Z,7.85
2018-07-22T03:39:30.745Z,7.65
2018-07-22T03:40:03.892Z,7.10
2018-07-22T03:40:37.068Z,7.83
2018-07-22T03:41:10.192Z,7.80
2018-07-22T03:41:43.387Z,8.25
2018-07-22T03:42:16.627Z,7.35
2018-07-22T03:42:49.792Z,7.67
2018-07-22T03:43:22.957Z,7.85
2018-07-22T03:43:56.027Z,7.33
2018-07-22T03:44:29.091Z,8.73
2018-07-22T03:45:02.186Z,8.05
2018-07-22T03:45:35.363Z,7.53
2018-07-22T03:46:08.678Z,8.43
2018-07-22T03:46:41.757Z,8.88
2018-07-22T03:47:14.810Z,8.63
2018-07-22T03:47:48.051Z,8.25
2018-07-22T03:48:21.271Z,7.90
2018-07-22T03:48:54.369Z,8.33
2018-07-22T03:49:27.939Z,9.15
2018-07-22T03:50:01.046Z,8.28
2018-07-22T03:50:34.291Z,7.92
2018-07-22T03:51:07.468Z,7.85
2018-07-22T03:51:40.650Z,8.35
2018-07-22T03:52:13.846Z,7.70
2018-07-22T03:52:46.925Z,7.60
2018-07-22T03:53:19.992Z,7.97
2018-07-22T03:53:53.184Z,8.00
2018-07-22T03:54:26.243Z,8.60
2018-07-22T03:54:59.394Z,8.63
2018-07-22T03:55:32.519Z,7.70
2018-07-22T03:56:06.991Z,8.18
2018-07-22T03:56:40.067Z,8.28
2018-07-22T03:57:13.164Z,8.80
2018-07-22T03:57:46.523Z,8.58
2018-07-22T03:58:19.727Z,8.38
2018-07-22T03:58:52.809Z,8.80
2018-07-22T03:59:26.051Z,8.45
2018-07-22T03:59:59.265Z,8.68
2018-07-22T04:00:32.357Z,8.43
2018-07-22T04:01:05.595Z,7.97
2018-07-22T04:01:39.098Z,8.08
2018-07-22T04:02:12.175Z,7.90
2018-07-22T04:02:45.448Z,8.70
2018-07-22T04:03:18.675Z,9.05
2018-07-22T04:03:51.808Z,7.97
2018-07-22T04:04:25.083Z,8.35
2018-07-22T04:04:58.309Z,8.45
2018-07-22T04:05:31.378Z,8.13
2018-07-22T04:06:04.517Z,9.50
2018-07-22T04:06:37.684Z,8.33
2018-07-22T04:07:10.767Z,8.45
2018-07-22T04:07:44.174Z,8.55
2018-07-22T04:08:17.835Z,8.30
2018-07-22T04:08:51.005Z,7.97
2018-07-22T04:09:24.325Z,8.05
2018-07-22T04:09:57.417Z,7.70
2018-07-22T04:10:30.886Z,8.50
2018-07-22T04:11:03.977Z,8.03
2018-07-22T04:11:37.225Z,8.35
2018-07-22T04:12:10.317Z,8.03
2018-07-22T04:12:43.385Z,7.87
2018-07-22T04:13:16.446Z,8.18
2018-07-22T04:13:49.525Z,8.53
2018-07-22T04:14:22.608Z,9.05
2018-07-22T04:14:55.683Z,8.13
2018-07-22T04:15:28.862Z,8.00
2018-07-22T04:16:02.035Z,8.25
2018-07-22T04:16:35.206Z,8.48
2018-07-22T04:17:08.704Z,8.25
2018-07-22T04:17:41.891Z,8.80
2018-07-22T04:18:15.055Z,7.92
2018-07-22T04:18:52.236Z,9.63
2018-07-22T04:19:25.539Z,7.92
2018-07-22T04:19:58.696Z,7.97
2018-07-22T04:20:31.789Z,8.85
2018-07-22T04:21:05.077Z,8.35
2018-07-22T04:21:38.254Z,8.20
2018-07-22T04:22:11.345Z,7.70
2018-07-22T04:22:44.477Z,8.10
2018-07-22T04:23:17.504Z,8.10
2018-07-22T04:23:51.125Z,8.10
2018-07-22T04:24:24.241Z,8.68
2018-07-22T04:24:57.335Z,8.55
2018-07-22T04:25:30.390Z,8.03
2018-07-22T04:26:03.492Z,8.10
2018-07-22T04:26:36.732Z,8.70
2018-07-22T04:27:09.903Z,8.38
2018-07-22T04:27:43.101Z,8.98
2018-07-22T04:28:16.261Z,8.00
2018-07-22T04:28:50.355Z,7.50
2018-07-22T04:29:23.454Z,8.68
2018-07-22T04:29:56.531Z,8.45
2018-07-22T04:30:29.616Z,7.90
2018-07-22T04:31:02.782Z,9.05
2018-07-22T04:31:35.829Z,8.23
2018-07-22T04:32:08.898Z,9.00
2018-07-22T04:32:41.987Z,8.90
2018-07-22T04:33:15.046Z,8.40
2018-07-22T04:33:48.479Z,7.37
2018-07-22T04:34:21.598Z,7.45
2018-07-22T04:34:54.715Z,8.45
2018-07-22T04:35:28.013Z,8.68
2018-07-22T04:36:01.094Z,8.18
2018-07-22T04:36:34.287Z,8.28
2018-07-22T04:37:07.352Z,8.00
2018-07-22T04:37:40.427Z,8.00
2018-07-22T04:38:13.487Z,7.97
2018-07-22T04:38:46.577Z,8.35
2018-07-22T04:39:19.650Z,8.33
2018-07-22T04:39:52.745Z,8.50
2018-07-22T04:40:25.833Z,7.45
2018-07-22T04:40:59.128Z,9.30
2018-07-22T04:41:32.238Z,7.53
2018-07-22T04:42:05.437Z,7.45
2018-07-22T04:42:38.596Z,8.93
2018-07-22T04:43:11.755Z,8.08
2018-07-22T04:43:44.857Z,8.63
2018-07-22T04:44:17.935Z,7.75
2018-07-22T04:44:51.020Z,8.08
2018-07-22T04:45:25.103Z,8.18
2018-07-22T04:45:58.275Z,7.50
2018-07-22T04:46:31.823Z,7.50
2018-07-22T04:47:04.967Z,7.80
2018-07-22T04:47:38.042Z,9.00
2018-07-22T04:48:11.295Z,7.97
2018-07-22T04:48:44.476Z,7.87
2018-07-22T04:49:17.648Z,8.23
2018-07-22T04:49:50.826Z,8.10
2018-07-22T04:50:24.138Z,7.70
2018-07-22T04:50:57.293Z,8.05
2018-07-22T04:51:30.802Z,7.50
2018-07-22T04:52:03.917Z,7.37
2018-07-22T04:52:37.089Z,7.90
2018-07-22T04:53:10.339Z,8.88
2018-07-22T04:53:43.402Z,7.75
2018-07-22T04:54:16.505Z,8.23
2018-07-22T04:54:50.051Z,7.97
2018-07-22T04:55:23.124Z,7.12
2018-07-22T04:55:56.413Z,8.53
2018-07-22T04:56:29.584Z,8.08
2018-07-22T04:57:02.758Z,7.97
2018-07-22T04:57:35.893Z,8.08
2018-07-22T04:58:09.067Z,8.45
2018-07-22T04:58:42.173Z,8.45
2018-07-22T04:59:15.240Z,7.37
2018-07-22T04:59:48.359Z,8.40
2018-07-22T05:00:21.463Z,8.23
2018-07-22T05:00:54.694Z,7.62
2018-07-22T05:01:27.877Z,8.60
2018-07-22T05:02:00.958Z,8.55
2018-07-22T05:02:34.259Z,7.60
2018-07-22T05:03:07.553Z,9.23
2018-07-22T05:03:40.631Z,8.43
2018-07-22T05:04:13.714Z,9.00
2018-07-22T05:04:46.886Z,8.90
2018-07-22T05:05:20.146Z,8.35
2018-07-22T05:05:53.302Z,8.38
2018-07-22T05:06:26.479Z,8.25
2018-07-22T05:06:59.546Z,7.92
2018-07-22T05:07:32.671Z,8.40
2018-07-22T05:08:06.018Z,8.15
2018-07-22T05:08:39.218Z,7.87
2018-07-22T05:09:13.348Z,8.23
2018-07-22T05:09:46.527Z,7.60
2018-07-22T05:10:19.659Z,7.95
2018-07-22T05:10:52.973Z,8.55
2018-07-22T05:11:26.246Z,8.50
2018-07-22T05:11:59.320Z,7.92
2018-07-22T05:12:32.676Z,9.25
2018-07-22T05:13:05.852Z,9.10
2018-07-22T05:13:39.040Z,8.28
2018-07-22T05:14:12.158Z,9.00
2018-07-22T05:14:45.426Z,7.50
2018-07-22T05:15:18.605Z,7.90
2018-07-22T05:15:52.078Z,8.38
2018-07-22T05:16:25.171Z,8.25
2018-07-22T05:16:58.438Z,7.65
2018-07-22T05:17:31.511Z,8.30
2018-07-22T05:18:05.402Z,7.95
2018-07-22T05:18:38.599Z,8.43
2018-07-22T05:19:11.773Z,8.33
2018-07-22T05:19:45.157Z,8.45
2018-07-22T05:20:18.272Z,7.60
2018-07-22T05:20:51.594Z,8.73
2018-07-22T05:21:24.787Z,7.90
2018-07-22T05:21:58.262Z,8.75
2018-07-22T05:22:31.292Z,7.67
2018-07-22T05:23:04.434Z,7.53
2018-07-22T05:23:37.518Z,8.45
2018-07-22T05:24:10.595Z,8.15
2018-07-22T05:24:43.672Z,7.80
2018-07-22T05:25:16.747Z,8.33
2018-07-22T05:25:50.139Z,8.83
2018-07-22T05:26:23.235Z,8.03
2018-07-22T05:26:56.567Z,8.20
2018-07-22T05:27:29.727Z,8.65
2018-07-22T05:28:02.931Z,8.70
2018-07-22T05:28:36.103Z,8.98
2018-07-22T05:29:09.835Z,8.90
2018-07-22T05:29:43.074Z,8.23
2018-07-22T05:30:16.167Z,8.43
2018-07-22T05:30:49.432Z,8.05
2018-07-22T05:31:22.545Z,8.63
2018-07-22T05:31:55.788Z,8.35
2018-07-22T05:32:29.085Z,8.95
2018-07-22T05:33:02.187Z,8.95
2018-07-22T05:33:35.632Z,8.58
2018-07-22T05:34:08.723Z,7.87
2018-07-22T05:34:42.902Z,8.68
2018-07-22T05:35:16.003Z,8.78
2018-07-22T05:35:49.564Z,8.93
2018-07-22T05:36:22.869Z,8.80
2018-07-22T05:36:55.944Z,9.05
2018-07-22T05:37:29.394Z,8.13
2018-07-22T05:38:02.705Z,7.92
2018-07-22T05:38:35.982Z,9.20
2018-07-22T05:39:11.091Z,8.80
2018-07-22T05:39:44.175Z,8.83
2018-07-22T05:40:17.465Z,8.00
2018-07-22T05:40:50.629Z,9.00
2018-07-22T05:41:23.747Z,8.45
2018-07-22T05:41:56.984Z,9.13
2018-07-22T05:42:30.160Z,8.63
2018-07-22T05:43:03.351Z,8.08
2018-07-22T05:43:36.816Z,9.30
2018-07-22T05:44:09.932Z,8.65
2018-07-22T05:44:43.502Z,8.93
2018-07-22T05:45:16.608Z,9.33
2018-07-22T05:45:49.983Z,9.55
2018-07-22T05:46:23.750Z,8.45
2018-07-22T05:46:56.949Z,8.68
2018-07-22T05:47:30.332Z,8.33
2018-07-22T05:48:03.496Z,8.95
2018-07-22T05:48:37.388Z,8.65
2018-07-22T05:49:10.463Z,8.65
2018-07-22T05:49:43.970Z,8.65
2018-07-22T05:50:17.251Z,9.15
2018-07-22T05:50:50.637Z,8.90
2018-07-22T05:51:23.806Z,9.03
2018-07-22T05:51:56.891Z,7.92
2018-07-22T05:52:30.264Z,8.55
2018-07-22T05:53:03.379Z,8.38
2018-07-22T05:53:36.468Z,8.43
2018-07-22T05:54:09.555Z,8.33
2018-07-22T05:54:42.847Z,8.45
2018-07-22T05:55:15.927Z,8.33
2018-07-22T05:55:49.005Z,8.28
2018-07-22T05:56:22.101Z,8.15
2018-07-22T05:56:55.274Z,8.90
2018-07-22T05:57:28.442Z,9.08
2018-07-22T05:58:01.744Z,8.75
2018-07-22T05:58:34.828Z,9.18
2018-07-22T05:59:07.970Z,8.20
2018-07-22T05:59:41.065Z,9.45
2018-07-22T06:00:14.150Z,8.95
2018-07-22T06:00:47.223Z,8.85
2018-07-22T06:01:20.296Z,8.93
2018-07-22T06:01:53.687Z,8.90
2018-07-22T06:02:26.847Z,8.70
2018-07-22T06:02:59.926Z,8.50
2018-07-22T06:03:33.221Z,9.08
2018-07-22T06:04:06.292Z,8.80
2018-07-22T06:04:39.476Z,8.88
2018-07-22T06:05:12.758Z,8.30
2018-07-22T06:05:46.151Z,8.80
2018-07-22T06:06:19.258Z,8.90
2018-07-22T06:06:52.330Z,8.50
2018-07-22T06:07:25.451Z,8.20
2018-07-22T06:07:58.832Z,8.95
2018-07-22T06:08:32.135Z,8.75
2018-07-22T06:09:06.707Z,8.58
2018-07-22T06:09:39.760Z,8.75
2018-07-22T06:10:13.061Z,7.92
2018-07-22T06:10:46.383Z,9.45
2018-07-22T06:11:19.449Z,8.30
2018-07-22T06:11:52.579Z,8.50
2018-07-22T06:12:25.647Z,8.90
2018-07-22T06:12:58.744Z,9.68
2018-07-22T06:13:31.799Z,9.18
2018-07-22T06:14:04.892Z,8.73
2018-07-22T06:14:37.970Z,12.68
2018-07-22T06:15:11.072Z,16.05
2018-07-22T06:15:44.147Z,14.47
2018-07-22T06:16:17.427Z,11.63
2018-07-22T06:16:50.506Z,10.93
2018-07-22T06:17:23.779Z,10.70
2018-07-22T06:17:57.090Z,9.10
2018-07-22T06:18:30.170Z,8.35
2018-07-22T06:19:03.258Z,8.80
2018-07-22T06:19:36.328Z,8.95
2018-07-22T06:20:09.678Z,9.20
2018-07-22T06:20:42.745Z,8.25
2018-07-22T06:21:16.043Z,8.00
2018-07-22T06:21:49.206Z,8.13
2018-07-22T06:22:22.381Z,9.20
2018-07-22T06:22:55.495Z,8.03
2018-07-22T06:23:28.787Z,9.38
2018-07-22T06:24:01.871Z,8.53
2018-07-22T06:24:36.997Z,8.70
2018-07-22T06:25:10.066Z,8.63
2018-07-22T06:25:43.292Z,8.45
2018-07-22T06:26:16.390Z,8.98
2018-07-22T06:26:49.458Z,9.28
2018-07-22T06:27:22.548Z,7.45
2018-07-22T06:27:55.656Z,8.15
2018-07-22T06:28:28.727Z,8.73
2018-07-22T06:29:01.792Z,8.90
2018-07-22T06:29:34.848Z,8.43
2018-07-22T06:30:07.951Z,9.23
2018-07-22T06:30:41.278Z,7.65
2018-07-22T06:31:14.459Z,7.50
2018-07-22T06:31:47.781Z,8.18
2018-07-22T06:32:20.900Z,8.00
2018-07-22T06:32:53.997Z,7.97
2018-07-22T06:33:27.320Z,7.80
2018-07-22T06:34:00.362Z,8.00
2018-07-22T06:34:33.540Z,7.80
2018-07-22T06:35:06.728Z,8.53
2018-07-22T06:35:39.832Z,8.13
2018-07-22T06:36:12.979Z,8.25
2018-07-22T06:36:46.080Z,8.38
2018-07-22T06:37:19.189Z,8.25
2018-07-22T06:37:52.297Z,7.25
2018-07-22T06:38:25.616Z,8.70
2018-07-22T06:38:58.715Z,9.48
2018-07-22T06:39:31.807Z,8.68
2018-07-22T06:40:04.892Z,8.15
2018-07-22T06:40:37.940Z,8.08
2018-07-22T06:41:11.068Z,7.90
2018-07-22T06:41:44.693Z,8.70
2018-07-22T06:42:17.869Z,7.60
2018-07-22T06:42:50.923Z,7.95
2018-07-22T06:43:24.077Z,7.70
2018-07-22T06:43:57.159Z,7.75
2018-07-22T06:44:30.287Z,8.10
2018-07-22T06:45:03.388Z,7.90
2018-07-22T06:45:36.460Z,7.62
2018-07-22T06:46:09.906Z,7.90
2018-07-22T06:46:43.361Z,6.90
2018-07-22T06:47:16.960Z,8.25
2018-07-22T06:47:50.067Z,8.58
2018-07-22T06:48:23.196Z,7.65
2018-07-22T06:48:56.377Z,7.95
2018-07-22T06:49:29.444Z,7.25
2018-07-22T06:50:02.868Z,8.40
2018-07-22T06:50:35.962Z,8.38
2018-07-22T06:51:09.202Z,8.13
2018-07-22T06:51:43.491Z,8.55
2018-07-22T06:52:18.186Z,7.78
2018-07-22T06:52:51.254Z,7.90
2018-07-22T06:53:24.370Z,8.10
2018-07-22T06:53:57.554Z,8.00
2018-07-22T06:54:31.057Z,8.60
2018-07-22T06:55:04.226Z,8.80
2018-07-22T06:55:37.411Z,8.63
2018-07-22T06:56:10.892Z,8.20
2018-07-22T06:56:44.101Z,8.00
2018-07-22T06:57:17.619Z,7.55
2018-07-22T06:57:50.735Z,8.90
2018-07-22T06:58:23.811Z,7.10
2018-07-22T06:58:57.299Z,7.85
2018-07-22T06:59:30.349Z,8.30
2018-07-22T07:00:03.467Z,7.80
2018-07-22T07:00:36.747Z,7.60
2018-07-22T07:01:09.868Z,8.20
2018-07-22T07:01:42.980Z,8.23
2018-07-22T07:02:16.154Z,8.68
2018-07-22T07:02:49.340Z,8.88
2018-07-22T07:03:22.540Z,7.87
2018-07-22T07:03:55.691Z,8.80
2018-07-22T07:04:28.867Z,9.58
2018-07-22T07:05:02.005Z,9.15
2018-07-22T07:05:35.226Z,9.33
2018-07-22T07:06:08.631Z,8.55
2018-07-22T07:06:41.993Z,7.95
2018-07-22T07:07:15.696Z,8.43
2018-07-22T07:07:48.873Z,7.95
2018-07-22T07:08:22.173Z,8.55
2018-07-22T07:08:55.460Z,8.03
2018-07-22T07:09:28.720Z,9.68
2018-07-22T07:10:01.826Z,8.80
2018-07-22T07:10:35.051Z,8.50
2018-07-22T07:11:08.253Z,7.70
2018-07-22T07:11:41.376Z,9.68
2018-07-22T07:12:14.625Z,8.38
2018-07-22T07:12:47.787Z,8.35
2018-07-22T07:13:20.907Z,8.33
2018-07-22T07:13:54.018Z,7.85
2018-07-22T07:14:27.402Z,9.65
2018-07-22T07:15:00.623Z,8.48
2018-07-22T07:15:33.968Z,9.43
2018-07-22T07:16:07.165Z,8.30
2018-07-22T07:16:40.278Z,8.85
2018-07-22T07:17:13.665Z,8.05
2018-07-22T07:17:47.361Z,8.95
2018-07-22T07:18:20.553Z,8.20
2018-07-22T07:18:53.606Z,8.18
2018-07-22T07:19:27.272Z,8.95
2018-07-22T07:20:00.447Z,8.20
2018-07-22T07:20:33.519Z,9.03
2018-07-22T07:21:07.116Z,8.80
2018-07-22T07:21:40.224Z,7.97
2018-07-22T07:22:13.881Z,8.40
2018-07-22T07:22:47.138Z,8.18